Terminal Aerodrome Forecast
Issued by NWS

Home | Current Version | Previous Version | Text Only | Print | Product List | Glossary On
Versions: 1 2 3 4 5 6 7 8 9 10 11 12
187
FTUS44 KTSA 261726
TAFMLC
TAF
KMLC 261726Z 2618/2718 11007KT P6SM SCT018 BKN025 OVC029
     FM262000 16005KT P6SM VCTS BKN040CB
     FM270000 15003KT P6SM SCT040 BKN200
     FM271500 16005KT P6SM BKN250=

USA.gov is the U.S. government's official web portal to all federal, state and local government web resources and services.